Ana Sayfa
METAR-TAF:

METAR-TAF

Havaalanları :

Greenwood, Mississipi, Amerika Birleşik Devletleri

Enlem: 33-29-33N, Boylam: 090-05-01W, yükseklik: 47 m

Güncel hava durumu gözlemi

Rapor saat 17:53 UTC de 59 dakika önce yapıldı.
Rüzgar değişken yönden 5 kt
Sıcaklık 35°C
Nem 60%
Basınç 1015 hPa
Görüş mesafesi: 16.1 km
3400 ft yükseklikte az bulutlu

METAR: KGWO 251753Z AUTO VRB05KT 10SM FEW034 35/26 A2996 RMK AO2 SLP141 T03500256 10356 20261 58001

Saat: 13:52 (18:52 UTC)

Tahmin

Rapor saat 17:34 UTC de 1 saat ve 18 dakika önce yapıldı.
Ayın 25'si saat 18 UTC'den ayın 26'si saat 18 UTC'ye kadar geçerli Tahmin
Rüzgar güney/güneybatıdan 4 kt
Görüş mesafesi: 10 km
5000 ft yükseklikte az bulutlu

TAF: KGWO 251734Z 2518/2618 21004KT P6SM FEW050

4.000'den fazla havaalanı için hava durumu gözlemleri ve tahminleri (METAR ve TAF raporları).

Kullanılabilir istasyonlar harita üzerinde sarı ve kırmızı noktalarla gösterilir.

İstasyonun adını görmek için fareyi noktanın üzerinde gezdirin.

Sonrasında hava gözlem ve tahminlerini görmek için tıklayın.

Haritayı değiştirmek için: yaklaştırmak için siyah artı işaretli yeşil düğmeye ve uzaklaştırmak için de eksi işaretli düğmeye hızla tıklayın; bitişik haritalar için yeşil okları kullanın.


METAR-TAF: